»·PEaware :: N454AH KCRQ-KSBA

N454AH :: KCRQ-KSBA

FLIGHT INFORMATION

Flight Status: Arrived
Operator: Privately registered:
United States
More flights under this callsign
Pilot: Andrew H. (17317)
Aircraft: PIPER PA-28R-201 ARROW
(P28R)
More flights by this aircraft type
Origin: KCRQ McClellan-Palomar
United States
Destination: KSBA Santa Barbara Mun
United States
More flights between these airports :: More routes between these airports
Route: +OCN V23 LAX V299 VTU KWANG
File this flight plan on PilotEdge
Remarks:
Altitude:
(Current/Filed)
50ft
Speed:
(Current/Filed)
125kts
Departed: 31-Aug-18 04:46 PM
Arrived: 31-Aug-18 06:03 PM
Distance/Time
Traveled:
149nm/1:17
Distance/Time
To Go:
Arrived

Flight Plot

Page will automatically refresh every two minutes.

Flight plan parsing failed; only flown route is shown


Map Options




Map Legend


Flown Route
Filed Route
Departure Airport
Arrival Airport
Navaid (VOR, NDB)
Fix

Horizontal Profiles

Position Reports

Time Latitude Longitude Heading Altitude Ground
Speed
31-Aug-18 16:23 33.127388 -117.275831 266 306ft 0kts
31-Aug-18 16:24 33.127388 -117.275831 266 306ft 0kts
31-Aug-18 16:25 33.127388 -117.275831 266 306ft 0kts
31-Aug-18 16:26 33.127388 -117.275831 266 306ft 0kts
31-Aug-18 16:27 33.127388 -117.275831 266 306ft 0kts
31-Aug-18 16:28 33.127388 -117.275831 266 306ft 0kts
31-Aug-18 16:29 33.127388 -117.275831 266 306ft 0kts
31-Aug-18 16:30 33.127388 -117.275831 266 306ft 0kts
31-Aug-18 16:31 33.127388 -117.275831 266 306ft 0kts
31-Aug-18 16:32 33.127388 -117.275831 266 306ft 0kts
31-Aug-18 16:33 33.127388 -117.275831 266 306ft 0kts
31-Aug-18 16:34 33.127388 -117.275831 266 306ft 0kts
31-Aug-18 16:35 33.127388 -117.275831 266 306ft 0kts
31-Aug-18 16:36 33.127388 -117.275831 266 306ft 0kts
31-Aug-18 16:37 33.127388 -117.275831 266 306ft 0kts
31-Aug-18 16:38 33.127388 -117.275831 266 306ft 0kts
31-Aug-18 16:39 33.127388 -117.275831 266 306ft 0kts
31-Aug-18 16:40 33.127388 -117.275831 266 306ft 0kts
31-Aug-18 16:41 33.127388 -117.275831 266 306ft 0kts
31-Aug-18 16:42 33.128010 -117.275735 42 307ft 5kts
31-Aug-18 16:43 33.128546 -117.273105 69 301ft 7kts
31-Aug-18 16:44 33.128624 -117.272935 52 301ft 0kts
31-Aug-18 16:45 33.128624 -117.272935 52 301ft 0kts
31-Aug-18 16:46 33.129419 -117.272905 261 304ft 9kts
31-Aug-18 16:47 33.126687 -117.293455 261 801ft 82kts
31-Aug-18 16:48 33.124220 -117.322140 261 1568ft 89kts
31-Aug-18 16:49 33.121651 -117.351482 261 2345ft 86kts
31-Aug-18 16:50 33.119199 -117.378946 261 3134ft 83kts
31-Aug-18 16:51 33.116465 -117.406166 261 3874ft 82kts
31-Aug-18 16:52 33.116881 -117.431818 315 4603ft 83kts
31-Aug-18 16:53 33.141779 -117.425431 6 5018ft 114kts
31-Aug-18 16:54 33.175725 -117.421295 358 5013ft 132kts
31-Aug-18 16:55 33.213810 -117.419093 358 5009ft 139kts
31-Aug-18 16:56 33.249224 -117.428514 314 5006ft 132kts
31-Aug-18 16:57 33.275974 -117.458802 312 5006ft 132kts
31-Aug-18 16:58 33.302176 -117.489289 312 5008ft 131kts
31-Aug-18 16:59 33.328204 -117.519637 312 5010ft 130kts
31-Aug-18 17:00 33.354039 -117.549789 313 5012ft 129kts
31-Aug-18 17:01 33.379758 -117.579831 313 5015ft 129kts
31-Aug-18 17:02 33.405379 -117.609776 313 5016ft 128kts
31-Aug-18 17:03 33.430934 -117.639669 313 5014ft 129kts
31-Aug-18 17:04 33.456628 -117.669761 312 5013ft 130kts
31-Aug-18 17:05 33.482648 -117.700223 311 5017ft 131kts
31-Aug-18 17:06 33.508901 -117.730986 311 5023ft 133kts
31-Aug-18 17:07 33.535424 -117.762113 311 5021ft 134kts
31-Aug-18 17:08 33.562148 -117.793526 311 5019ft 135kts
31-Aug-18 17:09 33.589010 -117.825136 311 5018ft 135kts
31-Aug-18 17:10 33.615945 -117.856851 311 5018ft 135kts
31-Aug-18 17:11 33.642760 -117.888457 311 5018ft 136kts
31-Aug-18 17:12 33.669740 -117.920278 311 5019ft 136kts
31-Aug-18 17:13 33.696800 -117.952235 311 5018ft 136kts
31-Aug-18 17:14 33.723951 -117.984330 311 5008ft 137kts
31-Aug-18 17:15 33.751161 -118.016513 311 5005ft 137kts
31-Aug-18 17:16 33.778508 -118.048897 311 5002ft 138kts
31-Aug-18 17:17 33.792275 -118.090195 283 5000ft 134kts
31-Aug-18 17:18 33.803318 -118.133017 283 5000ft 133kts
31-Aug-18 17:19 33.814062 -118.175152 283 5010ft 131kts
31-Aug-18 17:20 33.823331 -118.211630 284 5010ft 130kts
31-Aug-18 17:21 33.833806 -118.252939 284 5011ft 129kts
31-Aug-18 17:22 33.844195 -118.293975 285 5012ft 128kts
31-Aug-18 17:23 33.854515 -118.334766 286 5013ft 127kts
31-Aug-18 17:24 33.874703 -118.368881 314 5015ft 130kts
31-Aug-18 17:25 33.901687 -118.398103 315 5018ft 131kts
31-Aug-18 17:26 33.928909 -118.427270 315 5021ft 132kts
31-Aug-18 17:27 33.944025 -118.466272 289 5022ft 129kts
31-Aug-18 17:28 33.957127 -118.506816 289 5024ft 130kts
31-Aug-18 17:29 33.970159 -118.547564 288 5026ft 130kts
31-Aug-18 17:30 33.983428 -118.588192 290 5026ft 130kts
31-Aug-18 17:31 33.997753 -118.628398 291 5026ft 130kts
31-Aug-18 17:32 34.011860 -118.667995 290 5028ft 130kts
31-Aug-18 17:33 34.026119 -118.708056 290 5028ft 130kts
31-Aug-18 17:34 34.040337 -118.748053 290 5028ft 129kts
31-Aug-18 17:35 34.054454 -118.787820 290 5028ft 129kts
31-Aug-18 17:36 34.068494 -118.827416 291 5027ft 128kts
31-Aug-18 17:37 34.082473 -118.866883 291 5027ft 127kts
31-Aug-18 17:38 34.096359 -118.906130 290 5026ft 127kts
31-Aug-18 17:39 34.110120 -118.945081 290 5024ft 127kts
31-Aug-18 17:40 34.123983 -118.984359 290 5022ft 127kts
31-Aug-18 17:41 34.137817 -119.023627 290 5020ft 127kts
31-Aug-18 17:42 34.151617 -119.062846 290 5019ft 127kts
31-Aug-18 17:43 34.165468 -119.102260 290 5017ft 127kts
31-Aug-18 17:44 34.179258 -119.141541 291 5016ft 127kts
31-Aug-18 17:45 34.193081 -119.180960 291 5016ft 127kts
31-Aug-18 17:46 34.206847 -119.220275 291 5042ft 126kts
31-Aug-18 17:47 34.220515 -119.259355 292 5044ft 127kts
31-Aug-18 17:48 34.233871 -119.297569 292 5045ft 126kts
31-Aug-18 17:49 34.247616 -119.336938 292 5016ft 128kts
31-Aug-18 17:50 34.261922 -119.377942 291 4563ft 137kts
31-Aug-18 17:51 34.276834 -119.420744 291 3956ft 139kts
31-Aug-18 17:52 34.291875 -119.464002 290 3348ft 140kts
31-Aug-18 17:53 34.306803 -119.507003 290 3022ft 132kts
31-Aug-18 17:54 34.321101 -119.547800 289 3021ft 132kts
31-Aug-18 17:55 34.330943 -119.590005 279 3018ft 132kts
31-Aug-18 17:56 34.351491 -119.628001 302 3016ft 137kts
31-Aug-18 17:57 34.372865 -119.666296 288 2947ft 136kts
31-Aug-18 17:58 34.382382 -119.710242 287 2718ft 135kts
31-Aug-18 17:59 34.399003 -119.750428 295 2038ft 116kts
31-Aug-18 18:00 34.411902 -119.782700 290 1437ft 102kts
31-Aug-18 18:01 34.422337 -119.812470 298 1004ft 85kts
31-Aug-18 18:02 34.441053 -119.825326 337 749ft 80kts
31-Aug-18 18:03 34.440692 -119.839917 186 422ft 81kts
31-Aug-18 18:04 34.425026 -119.838571 164 13ft 21kts
31-Aug-18 18:05 34.424495 -119.837948 113 12ft 0kts
31-Aug-18 18:06 34.424482 -119.837873 96 12ft 0kts
31-Aug-18 18:07 34.423944 -119.837488 149 11ft 9kts

Navigation Log

Ident Type
Flight plan parsing failed, navigation log unavailable